createdAt,value
2022-12-08T00:00:09.855Z,11.00
2022-12-08T00:03:01.158Z,9.90
2022-12-08T00:05:49.054Z,10.00
2022-12-08T00:08:35.791Z,8.80
2022-12-08T00:11:04.418Z,8.50
2022-12-08T00:13:33.090Z,9.80
2022-12-08T00:16:01.789Z,10.50
2022-12-08T00:18:30.439Z,10.50
2022-12-08T00:20:59.880Z,10.50
2022-12-08T00:23:28.451Z,10.90
2022-12-08T00:26:01.053Z,11.40
2022-12-08T00:28:29.622Z,12.50
2022-12-08T00:30:58.355Z,13.50
2022-12-08T00:33:28.135Z,12.30
2022-12-08T00:35:56.709Z,11.40
2022-12-08T00:38:25.546Z,12.00
2022-12-08T00:40:54.278Z,10.60
2022-12-08T00:43:22.843Z,9.80
2022-12-08T00:45:51.568Z,9.50
2022-12-08T00:48:20.189Z,8.40
2022-12-08T00:50:48.801Z,8.50
2022-12-08T00:53:17.325Z,8.20
2022-12-08T00:55:45.841Z,8.70
2022-12-08T00:58:14.472Z,7.90
2022-12-08T01:00:43.758Z,7.70
2022-12-08T01:03:13.171Z,7.90
2022-12-08T01:05:41.729Z,9.40
2022-12-08T01:08:10.355Z,10.20
2022-12-08T01:10:40.115Z,10.90
2022-12-08T01:13:08.686Z,12.90
2022-12-08T01:15:38.217Z,11.00
2022-12-08T01:18:06.902Z,10.70
2022-12-08T01:20:35.521Z,11.90
2022-12-08T01:23:04.142Z,9.60
2022-12-08T01:25:35.167Z,8.00
2022-12-08T01:28:03.993Z,7.90
2022-12-08T01:30:32.694Z,7.60
2022-12-08T01:33:02.184Z,7.00
2022-12-08T01:35:31.391Z,7.70
2022-12-08T01:38:00.082Z,7.00
2022-12-08T01:40:28.642Z,6.70
2022-12-08T01:42:57.397Z,6.90
2022-12-08T01:45:28.347Z,7.10
2022-12-08T01:48:00.256Z,6.50
2022-12-08T01:50:30.328Z,6.50
2022-12-08T01:53:01.957Z,7.00
2022-12-08T01:55:36.732Z,7.50
2022-12-08T01:58:12.976Z,6.40
2022-12-08T02:00:41.803Z,6.20
2022-12-08T02:03:14.265Z,7.10
2022-12-08T02:05:43.684Z,10.10
2022-12-08T02:08:14.786Z,7.30
2022-12-08T02:10:44.123Z,8.60
2022-12-08T02:13:16.254Z,8.10
2022-12-08T07:16:13.297Z,11.50
2022-12-08T07:18:45.440Z,11.40
2022-12-08T07:21:18.241Z,12.30
2022-12-08T07:23:57.424Z,12.90
2022-12-08T07:26:30.214Z,14.00
2022-12-08T07:29:02.848Z,12.60
2022-12-08T07:31:35.221Z,13.80
2022-12-08T07:34:07.455Z,13.90
2022-12-08T07:41:43.028Z,12.10
2022-12-08T07:46:46.058Z,15.00
2022-12-08T07:49:18.343Z,15.60
2022-12-08T07:54:21.025Z,14.30
2022-12-08T07:59:23.766Z,14.40
2022-12-08T08:02:13.520Z,12.40
2022-12-08T08:04:50.718Z,12.50
2022-12-08T08:07:22.846Z,13.40
2022-12-08T08:09:55.169Z,15.10
2022-12-08T08:12:32.024Z,13.10
2022-12-08T08:15:07.470Z,14.30
2022-12-08T08:17:40.411Z,12.50
2022-12-08T08:20:14.571Z,12.80
2022-12-08T08:22:50.213Z,12.00
2022-12-08T08:25:23.625Z,12.90
2022-12-08T08:27:56.842Z,12.50
2022-12-08T08:30:33.225Z,12.70
2022-12-08T08:33:05.614Z,13.60
2022-12-08T08:35:38.699Z,15.40
2022-12-08T08:38:10.748Z,14.90
2022-12-08T08:40:43.014Z,16.80
2022-12-08T08:46:11.226Z,14.60
2022-12-08T08:48:43.451Z,13.60
2022-12-08T08:51:16.723Z,13.60
2022-12-08T08:53:48.899Z,14.10
2022-12-08T08:56:21.858Z,12.80
2022-12-08T08:58:55.140Z,13.00
2022-12-08T09:01:28.994Z,13.40
2022-12-08T09:04:01.461Z,13.20
2022-12-08T09:06:33.768Z,12.90
2022-12-08T09:11:36.390Z,14.30
2022-12-08T09:16:42.339Z,11.90
2022-12-08T09:19:15.151Z,11.90
2022-12-08T09:21:47.491Z,12.00
2022-12-08T09:26:50.616Z,11.60
2022-12-08T09:29:22.788Z,12.70
2022-12-08T09:31:56.486Z,14.10
2022-12-08T09:34:28.725Z,13.20
2022-12-08T09:39:31.638Z,12.20
2022-12-08T09:44:57.287Z,13.70
2022-12-08T09:47:36.082Z,16.50
2022-12-08T09:50:13.534Z,16.90
2022-12-08T09:52:48.990Z,15.70
2022-12-08T09:55:45.327Z,15.70
2022-12-08T09:58:26.909Z,17.40
2022-12-08T10:00:59.301Z,18.60
2022-12-08T10:03:32.892Z,15.70
2022-12-08T10:06:09.273Z,15.00
2022-12-08T10:08:49.246Z,15.60
2022-12-08T10:11:30.519Z,13.90
2022-12-08T10:14:15.750Z,12.90
2022-12-08T10:16:53.426Z,15.20
2022-12-08T10:19:28.689Z,14.20
2022-12-08T10:22:01.074Z,13.80
2022-12-08T10:24:40.837Z,14.70
2022-12-08T10:27:15.000Z,15.90
2022-12-08T10:29:47.241Z,18.20
2022-12-08T10:32:23.597Z,15.60
2022-12-08T10:35:08.607Z,18.20
2022-12-08T10:37:41.201Z,16.00
2022-12-08T10:40:18.044Z,13.90
2022-12-08T10:42:53.435Z,14.50
2022-12-08T10:45:29.490Z,13.70
2022-12-08T10:48:04.874Z,14.10
2022-12-08T10:50:43.043Z,13.80
2022-12-08T10:53:20.928Z,13.80
2022-12-08T10:56:06.293Z,17.10
2022-12-08T10:58:40.936Z,15.90
2022-12-08T11:01:18.102Z,15.70
2022-12-08T11:03:53.058Z,14.30
2022-12-08T11:06:35.461Z,14.40
2022-12-08T11:11:49.381Z,11.60
2022-12-08T11:14:24.871Z,14.30
2022-12-08T11:17:04.654Z,12.60
2022-12-08T11:19:40.450Z,15.00
2022-12-08T11:22:25.995Z,13.40
2022-12-08T11:25:04.103Z,14.00
2022-12-08T11:27:38.216Z,13.50
2022-12-08T11:30:18.154Z,13.40
2022-12-08T11:32:55.889Z,13.30
2022-12-08T11:35:31.488Z,12.90
2022-12-08T11:38:21.008Z,12.60
2022-12-08T11:40:57.027Z,12.70
2022-12-08T11:43:37.645Z,11.50
2022-12-08T11:46:17.247Z,12.20
2022-12-08T11:48:54.529Z,11.40
2022-12-08T11:51:33.366Z,11.10
2022-12-08T11:54:19.062Z,11.10
2022-12-08T11:56:54.130Z,11.00
2022-12-08T11:59:30.704Z,10.90
2022-12-08T12:02:05.469Z,11.00
2022-12-08T12:04:45.755Z,11.50
2022-12-08T12:07:41.715Z,10.80
2022-12-08T12:10:28.219Z,11.40
2022-12-08T12:13:13.762Z,11.00
2022-12-08T12:16:19.911Z,12.80
2022-12-08T12:18:56.615Z,12.70
2022-12-08T12:21:34.883Z,15.30
2022-12-08T12:24:11.569Z,12.70
2022-12-08T12:26:57.090Z,11.00
2022-12-08T12:29:32.113Z,11.40
2022-12-08T12:32:07.421Z,13.30
2022-12-08T12:34:49.932Z,13.60
2022-12-08T12:37:25.749Z,11.50
2022-12-08T12:40:05.305Z,10.10
2022-12-08T12:42:50.723Z,12.90
2022-12-08T12:45:33.322Z,11.80
2022-12-08T12:48:25.120Z,11.70
2022-12-08T12:50:57.379Z,11.50
2022-12-08T12:56:54.075Z,11.80
2022-12-08T12:59:43.668Z,12.10
2022-12-08T13:02:25.809Z,11.00
2022-12-08T13:05:13.149Z,13.00
2022-12-08T13:07:50.948Z,13.60
2022-12-08T13:10:26.495Z,12.10
2022-12-08T13:13:09.118Z,13.00
2022-12-08T13:15:48.832Z,13.10
2022-12-08T13:18:26.170Z,12.60
2022-12-08T13:21:05.761Z,13.00
2022-12-08T13:23:49.542Z,16.40
2022-12-08T13:26:24.073Z,13.10
2022-12-08T13:29:18.025Z,14.20
2022-12-08T13:31:52.627Z,14.20
2022-12-08T13:34:31.340Z,13.00
2022-12-08T13:37:19.983Z,13.80
2022-12-08T13:39:56.419Z,13.00
2022-12-08T13:42:41.965Z,16.30
2022-12-08T13:48:35.335Z,22.80
2022-12-08T13:57:28.865Z,15.20
2022-12-08T14:00:05.940Z,14.90
2022-12-08T14:02:48.104Z,13.40
2022-12-08T14:05:47.486Z,15.10
2022-12-08T14:08:57.467Z,15.40
2022-12-08T14:11:37.007Z,16.70
2022-12-08T14:14:27.224Z,15.10
2022-12-08T14:17:07.170Z,21.20
2022-12-08T14:19:39.829Z,23.10
2022-12-08T14:22:16.593Z,23.10
2022-12-08T14:24:51.622Z,22.20
2022-12-08T14:27:25.390Z,25.20
2022-12-08T14:30:01.321Z,22.00
2022-12-08T14:32:35.597Z,23.60
2022-12-08T14:35:23.531Z,20.00
2022-12-08T14:37:58.711Z,17.70
2022-12-08T14:40:34.942Z,19.00
2022-12-08T14:43:18.775Z,18.20
2022-12-08T14:45:53.647Z,18.10
2022-12-08T14:48:29.084Z,20.50
2022-12-08T14:51:08.867Z,20.10
2022-12-08T14:53:43.588Z,14.80
2022-12-08T14:56:23.807Z,15.60
2022-12-08T14:59:07.849Z,15.10
2022-12-08T15:01:41.188Z,14.90
2022-12-08T15:04:20.272Z,15.60
2022-12-08T15:07:01.373Z,16.90
2022-12-08T15:09:37.447Z,16.40
2022-12-08T15:12:26.624Z,14.80
2022-12-08T15:15:03.427Z,17.60
2022-12-08T15:17:43.661Z,20.30
2022-12-08T15:20:35.621Z,26.10
2022-12-08T15:23:12.995Z,25.70
2022-12-08T15:25:45.823Z,28.80
2022-12-08T15:28:22.054Z,32.30
2022-12-08T15:30:57.146Z,39.00
2022-12-08T15:33:29.956Z,31.40
2022-12-08T15:36:02.126Z,33.00
2022-12-08T15:38:35.213Z,31.20
2022-12-08T15:41:13.038Z,22.20
2022-12-08T15:43:47.016Z,19.80
2022-12-08T15:48:57.796Z,24.60
2022-12-08T15:51:37.048Z,25.80
2022-12-08T15:54:09.763Z,22.30
2022-12-08T15:57:10.594Z,26.70
2022-12-08T15:59:39.029Z,23.50
2022-12-08T16:02:16.641Z,25.60
2022-12-08T16:07:44.623Z,25.90
2022-12-08T16:10:21.068Z,27.70
2022-12-08T16:13:55.529Z,36.40
2022-12-08T16:16:04.036Z,39.30
2022-12-08T16:18:40.109Z,37.10
2022-12-08T16:21:31.528Z,30.80
2022-12-08T16:24:09.393Z,24.20
2022-12-08T16:29:34.459Z,17.70
2022-12-08T16:32:07.015Z,15.30
2022-12-08T16:34:39.132Z,24.80
2022-12-08T16:37:15.238Z,23.00
2022-12-08T16:39:50.197Z,28.20
2022-12-08T16:42:43.740Z,31.80
2022-12-08T16:45:19.385Z,34.30
2022-12-08T16:47:53.438Z,38.80
2022-12-08T16:50:27.792Z,30.60
2022-12-08T16:53:01.942Z,28.20
2022-12-08T16:55:34.674Z,29.00
2022-12-08T16:58:07.238Z,28.60
2022-12-08T17:00:39.463Z,31.20
2022-12-08T17:05:45.021Z,31.90
2022-12-08T17:08:17.561Z,33.40
2022-12-08T17:11:07.436Z,41.90
2022-12-08T17:13:41.773Z,44.80
2022-12-08T17:16:17.781Z,37.70
2022-12-08T17:18:50.557Z,39.90
2022-12-08T17:21:23.018Z,31.40
2022-12-08T17:23:55.089Z,35.60
2022-12-08T17:26:27.261Z,32.30
2022-12-08T17:29:01.418Z,28.40
2022-12-08T17:31:34.835Z,25.80
2022-12-08T17:34:10.272Z,25.10
2022-12-08T17:36:42.622Z,25.90
2022-12-08T17:39:18.731Z,26.00
2022-12-08T17:41:51.445Z,30.90
2022-12-08T17:46:54.136Z,61.50
2022-12-08T17:49:29.690Z,36.50
2022-12-08T17:52:03.777Z,40.70
2022-12-08T17:54:36.614Z,31.30
2022-12-08T17:57:09.062Z,26.70
2022-12-08T17:59:41.839Z,27.30
2022-12-08T18:02:14.203Z,31.30
2022-12-08T18:04:46.612Z,34.20
2022-12-08T18:07:18.801Z,43.60
2022-12-08T18:12:23.819Z,31.50
2022-12-08T18:14:56.547Z,28.80
2022-12-08T18:19:59.317Z,20.10
2022-12-08T18:22:31.447Z,31.80
2022-12-08T18:27:37.382Z,40.90
2022-12-08T18:30:18.291Z,31.70
2022-12-08T18:32:54.286Z,30.80
2022-12-08T18:35:30.016Z,25.40
2022-12-08T18:38:02.658Z,26.40
2022-12-08T18:40:35.110Z,27.60
2022-12-08T18:43:07.787Z,37.10
2022-12-08T18:45:40.105Z,33.90
2022-12-08T18:48:14.735Z,31.00
2022-12-08T18:50:46.862Z,33.50
2022-12-08T18:55:51.178Z,28.70
2022-12-08T18:58:23.439Z,33.50
2022-12-08T19:00:55.852Z,32.40
2022-12-08T19:03:28.175Z,24.80
2022-12-08T19:06:06.576Z,29.10
2022-12-08T19:08:38.968Z,22.40
2022-12-08T19:11:35.111Z,21.30
2022-12-08T19:14:07.872Z,20.80
2022-12-08T19:16:40.320Z,21.40
2022-12-08T19:19:13.533Z,21.10
2022-12-08T19:24:19.386Z,17.80
2022-12-08T19:26:52.005Z,19.10
2022-12-08T19:29:24.032Z,22.30
2022-12-08T19:31:56.871Z,19.30
2022-12-08T19:34:29.359Z,19.90
2022-12-08T19:37:01.750Z,19.60
2022-12-08T19:39:51.594Z,19.60
2022-12-08T19:42:42.444Z,22.50
2022-12-08T19:45:18.186Z,29.30
2022-12-08T19:47:51.125Z,29.40
2022-12-08T19:50:39.435Z,25.50
2022-12-08T19:53:14.552Z,23.70
2022-12-08T19:55:49.082Z,22.40
2022-12-08T19:58:21.195Z,21.80
2022-12-08T20:03:24.448Z,17.30
2022-12-08T20:05:56.658Z,16.40
2022-12-08T20:08:29.064Z,15.00
2022-12-08T20:13:48.772Z,15.80
2022-12-08T20:16:21.373Z,14.50
2022-12-08T20:18:54.804Z,16.10
2022-12-08T20:21:27.206Z,17.80
2022-12-08T20:23:59.913Z,35.40
2022-12-08T20:26:32.239Z,36.90
2022-12-08T20:29:05.291Z,30.10
2022-12-08T20:31:38.624Z,31.00
2022-12-08T20:34:16.366Z,22.10
2022-12-08T20:36:50.765Z,29.70
2022-12-08T20:39:27.491Z,30.80
2022-12-08T20:42:00.363Z,41.40
2022-12-08T20:44:33.334Z,49.00
2022-12-08T20:47:05.686Z,39.60
2022-12-08T20:49:38.666Z,35.50
2022-12-08T20:52:11.586Z,31.40
2022-12-08T20:54:43.930Z,27.00
2022-12-08T20:57:16.318Z,25.40
2022-12-08T20:59:48.620Z,22.30
2022-12-08T21:04:51.971Z,23.60
2022-12-08T21:07:24.419Z,27.30
2022-12-08T21:09:56.677Z,37.80
2022-12-08T21:14:59.885Z,35.50
2022-12-08T21:17:32.296Z,33.10
2022-12-08T21:20:05.481Z,35.30
2022-12-08T21:22:39.980Z,55.60
2022-12-08T21:25:12.906Z,47.00
2022-12-08T21:27:45.409Z,38.40
2022-12-08T21:30:19.070Z,31.20
2022-12-08T21:32:51.360Z,29.20
2022-12-08T21:35:23.735Z,28.80
2022-12-08T21:37:56.190Z,31.60
2022-12-08T21:42:59.352Z,31.90
2022-12-08T21:48:10.306Z,30.90
2022-12-08T21:50:43.646Z,29.90
2022-12-08T21:53:15.962Z,30.70
2022-12-08T21:55:48.384Z,27.60
2022-12-08T21:58:20.692Z,27.40
2022-12-08T22:00:52.916Z,31.00
2022-12-08T22:03:25.384Z,35.70
2022-12-08T22:05:58.254Z,35.10
2022-12-08T22:08:30.846Z,33.10
2022-12-08T22:11:03.163Z,35.30
2022-12-08T22:13:36.604Z,34.50
2022-12-08T22:16:11.514Z,34.00
2022-12-08T22:18:44.286Z,33.30
2022-12-08T22:21:18.784Z,30.80
2022-12-08T22:23:50.965Z,25.40
2022-12-08T22:28:54.646Z,24.00
2022-12-08T22:31:27.823Z,24.40
2022-12-08T22:34:01.651Z,26.10
2022-12-08T22:36:34.443Z,34.20
2022-12-08T22:39:06.931Z,31.70
2022-12-08T22:41:39.124Z,31.50
2022-12-08T22:46:42.790Z,27.70
2022-12-08T22:49:15.301Z,30.90
2022-12-08T22:51:47.905Z,27.40
2022-12-08T22:56:51.502Z,26.50
2022-12-08T22:59:23.917Z,25.60
2022-12-08T23:01:56.062Z,23.90
2022-12-08T23:06:58.943Z,20.30
2022-12-08T23:12:01.760Z,23.00
2022-12-08T23:17:04.563Z,20.90
2022-12-08T23:22:08.485Z,21.80
2022-12-08T23:24:40.872Z,22.70
2022-12-08T23:27:12.931Z,20.50
2022-12-08T23:29:45.317Z,21.30
2022-12-08T23:32:17.564Z,19.30
2022-12-08T23:34:50.289Z,19.70
2022-12-08T23:37:22.778Z,20.70
2022-12-08T23:39:55.242Z,20.60
2022-12-08T23:42:27.501Z,23.90
2022-12-08T23:44:59.988Z,25.50
2022-12-08T23:47:32.444Z,22.30
2022-12-08T23:50:05.533Z,21.10
2022-12-08T23:52:39.817Z,20.40
2022-12-08T23:55:13.110Z,19.80
2022-12-08T23:57:45.477Z,19.10
